< Cyclone 197220 1973 Season Cyclone 197303 >
Cyclone 197302 (JEAN)
General InformationTrack Information on Google Maps || ResourceGoogle EarthGE AnimationAtom FeedGeoJSON
Detalied Best Track (Time Zone = UTC)
Year Month Day Hour Lat. Long. Pressure (hPa) Wind (kt) Class Image Chart
1973 1 10 01 -11.9 115.0 1005 0 0 -- --
1973 1 10 04 -12.1 115.0 1004 0 0 -- --
1973 1 10 07 -12.4 115.0 1003 0 0 -- --
1973 1 10 10 -12.8 115.0 1002 0 0 -- --
1973 1 10 13 -13.0 115.0 1002 0 0 -- --
1973 1 10 16 -13.2 115.0 1002 0 0 -- --
1973 1 10 19 -13.5 115.0 1001 0 0 -- --
1973 1 10 22 -13.9 115.0 1000 0 0 -- --
1973 1 11 01 -14.3 115.0 1000 0 0 -- --
1973 1 11 04 -14.9 114.8 997 0 0 -- --
1973 1 11 07 -15.5 114.6 996 0 0 -- --
1973 1 11 10 -15.9 114.5 994 0 0 -- --
1973 1 11 13 -16.3 114.4 992 0 0 -- --
1973 1 11 16 -16.8 114.3 990 0 0 -- --
1973 1 11 19 -17.1 114.0 990 0 0 -- --
1973 1 11 22 -17.6 113.7 986 0 0 -- --
1973 1 12 01 -17.7 113.0 980 0 0 -- --
1973 1 12 04 -17.7 112.7 970 0 0 -- --
1973 1 12 07 -17.7 112.5 970 0 0 -- --
1973 1 12 10 -17.7 112.0 970 0 0 -- --
1973 1 12 13 -17.8 111.5 970 0 0 -- --
1973 1 12 16 -17.9 111.0 970 0 0 -- --
1973 1 12 19 -18.0 110.0 968 0 0 -- --
1973 1 12 22 -18.5 109.0 966 0 0 -- --
1973 1 13 01 -18.9 108.0 964 0 0 -- --
1973 1 13 04 -19.2 107.8 964 0 0 -- --
1973 1 13 07 -19.4 107.3 964 0 0 -- --
1973 1 13 10 -19.6 107.0 964 0 0 -- --
1973 1 13 13 -19.8 106.7 964 0 0 -- --
1973 1 13 16 -19.9 106.3 965 0 0 -- --
1973 1 13 19 -20.1 106.0 965 0 0 -- --
1973 1 13 22 -20.4 105.5 965 0 0 -- --
1973 1 14 01 -20.9 105.0 965 0 0 -- --
1973 1 14 04 -21.0 104.6 968 0 0 -- --
1973 1 14 07 -21.1 104.2 970 0 0 -- --
1973 1 14 10 -21.4 103.8 970 0 0 -- --
1973 1 14 13 -21.7 103.4 975 0 0 -- --
1973 1 14 16 -22.0 102.9 975 0 0 -- --
1973 1 14 19 -22.4 102.4 978 0 0 -- --
1973 1 14 20 -22.8 102.0 980 0 0 -- --
1973 1 15 01 -23.0 101.5 982 0 0 -- --
1973 1 15 04 -23.3 100.8 982 0 0 -- --
1973 1 15 07 -23.7 100.4 985 0 0 -- --
1973 1 15 10 -23.9 100.0 985 0 0 -- --
1973 1 15 13 -24.4 100.0 986 0 0 -- --
1973 1 15 16 -24.9 99.9 987 0 0 -- --
1973 1 15 19 -25.3 99.7 990 0 0 -- --
1973 1 15 20 -25.5 99.4 990 0 0 -- --
1973 1 16 01 -25.5 99.0 992 0 0 -- --
1973 1 16 04 -25.4 98.8 992 0 0 -- --
1973 1 16 07 -25.3 98.7 992 0 0 -- --
1973 1 16 10 -25.1 98.6 992 0 0 -- --
1973 1 16 13 -25.0 98.6 993 0 0 -- --
1973 1 16 16 -24.9 98.6 994 0 0 -- --
1973 1 16 19 -24.7 98.5 995 0 0 -- --
1973 1 16 22 -24.5 98.5 996 0 0 -- --
1973 1 17 01 -24.4 98.5 997 0 0 -- --
< Cyclone 197220 1973 Season Cyclone 197303 >

Help